Los Palacios y Villafranca, Spain
Current Conditions -  °F | °C
As of 11:00 PM on Friday 24 Oct 2014 (Local Time) from LEMO Reporting Station
Clear Clear  
Wind Chill: 66°   Ceiling: Unl
Heat Index: 66°   Visibility: 6mi
Dew Point: 46°   Wind: 2mph
Humidity: 49%   Direction: 180°S
Pressure: 29.97"   Gusts: NA
Location:  37.16°N, 5.92°W
Report Text: LEMO 242100Z 18002KT CAVOK 19/08 Q1015 NOSIG
Loading
Personal Weather Stations






























Interactive Weather Map
Tropical Storm Tracking
New forecast layout! Learn more

10-Day Weather Forecast

Advertisements
Track Severe Weather on mobile